createdAt,value
2022-09-03T00:02:28.749Z,1.85
2022-09-03T00:05:10.156Z,1.77
2022-09-03T00:07:48.887Z,1.52
2022-09-03T00:10:29.528Z,1.45
2022-09-03T00:13:06.340Z,1.40
2022-09-03T00:15:41.692Z,1.55
2022-09-03T00:18:18.212Z,1.35
2022-09-03T00:20:59.426Z,1.25
2022-09-03T00:23:32.955Z,2.00
2022-09-03T00:26:18.397Z,1.27
2022-09-03T00:28:59.132Z,1.60
2022-09-03T00:31:38.358Z,1.45
2022-09-03T00:34:15.986Z,1.50
2022-09-03T00:36:50.321Z,1.27
2022-09-03T00:39:25.083Z,2.97
2022-09-03T00:42:14.096Z,1.95
2022-09-03T00:45:03.844Z,1.50
2022-09-03T00:47:48.629Z,1.50
2022-09-03T00:50:32.779Z,1.55
2022-09-03T00:53:13.482Z,1.52
2022-09-03T00:55:58.438Z,1.40
2022-09-03T00:58:51.993Z,1.55
2022-09-03T01:01:30.977Z,1.23
2022-09-03T01:04:21.148Z,1.48
2022-09-03T01:07:00.799Z,1.25
2022-09-03T01:09:50.278Z,1.55
2022-09-03T01:12:35.963Z,1.65
2022-09-03T01:15:16.371Z,1.67
2022-09-03T01:18:03.373Z,1.70
2022-09-03T01:20:49.950Z,1.48
2022-09-03T01:23:39.452Z,1.40
2022-09-03T01:26:28.573Z,1.10
2022-09-03T01:29:13.639Z,1.17
2022-09-03T01:31:58.621Z,1.42
2022-09-03T01:34:44.976Z,1.20
2022-09-03T01:37:32.312Z,1.77
2022-09-03T01:40:19.232Z,1.63
2022-09-03T01:43:05.204Z,1.40
2022-09-03T01:45:51.585Z,1.38
2022-09-03T01:48:35.768Z,1.60
2022-09-03T01:51:20.957Z,1.40
2022-09-03T01:54:21.027Z,1.30
2022-09-03T01:57:35.773Z,1.25
2022-09-03T02:00:13.470Z,1.50
2022-09-03T02:02:51.114Z,1.30
2022-09-03T02:05:26.203Z,1.33
2022-09-03T02:08:01.586Z,1.30
2022-09-03T02:10:40.973Z,1.35
2022-09-03T02:13:19.685Z,1.27
2022-09-03T02:15:54.807Z,1.30
2022-09-03T02:18:34.612Z,1.45
2022-09-03T02:21:10.756Z,1.48
2022-09-03T02:23:43.823Z,1.05
2022-09-03T02:28:51.905Z,1.25
2022-09-03T02:31:25.296Z,1.00
2022-09-03T02:33:59.963Z,1.48
2022-09-03T02:36:35.041Z,1.45
2022-09-03T02:39:08.256Z,1.17
2022-09-03T02:41:41.499Z,1.20
2022-09-03T02:44:19.953Z,1.75
2022-09-03T02:46:58.096Z,1.35
2022-09-03T02:49:32.916Z,1.63
2022-09-03T02:52:09.531Z,1.30
2022-09-03T02:54:46.033Z,1.63
2022-09-03T02:57:27.473Z,1.10
2022-09-03T03:00:01.373Z,1.10
2022-09-03T03:02:34.390Z,1.10
2022-09-03T03:07:43.088Z,1.20
2022-09-03T03:10:16.201Z,1.35
2022-09-03T03:12:50.381Z,0.90
2022-09-03T03:15:23.132Z,1.30
2022-09-03T03:17:57.332Z,1.35
2022-09-03T03:20:31.699Z,1.10
2022-09-03T03:23:05.585Z,1.20
2022-09-03T03:25:40.046Z,1.10
2022-09-03T03:28:13.708Z,1.02
2022-09-03T03:30:48.552Z,1.10
2022-09-03T03:33:22.288Z,0.93
2022-09-03T03:35:57.750Z,1.67
2022-09-03T03:38:30.525Z,1.40
2022-09-03T03:41:08.724Z,1.70
2022-09-03T03:43:41.623Z,1.40
2022-09-03T03:46:15.080Z,1.23
2022-09-03T03:48:49.221Z,1.13
2022-09-03T03:51:23.657Z,1.30
2022-09-03T03:54:00.173Z,1.23
2022-09-03T03:56:36.554Z,1.55
2022-09-03T03:59:09.709Z,1.25
2022-09-03T04:01:42.541Z,1.20
2022-09-03T04:04:15.301Z,1.42
2022-09-03T04:06:49.518Z,1.27
2022-09-03T04:09:22.490Z,1.48
2022-09-03T04:11:56.815Z,1.33
2022-09-03T04:14:30.032Z,1.83
2022-09-03T04:17:03.581Z,1.42
2022-09-03T04:19:36.692Z,0.98
2022-09-03T04:24:43.504Z,1.10
2022-09-03T04:27:16.211Z,1.27
2022-09-03T04:29:48.928Z,1.50
2022-09-03T04:32:39.596Z,1.30
2022-09-03T04:35:12.355Z,1.42
2022-09-03T04:37:46.388Z,1.15
2022-09-03T04:40:19.280Z,1.27
2022-09-03T04:42:52.390Z,1.60
2022-09-03T04:45:25.602Z,1.10
2022-09-03T04:48:00.176Z,1.30
2022-09-03T04:50:35.593Z,1.52
2022-09-03T04:53:09.663Z,1.20
2022-09-03T04:55:42.466Z,1.52
2022-09-03T04:58:15.413Z,1.40
2022-09-03T05:03:22.019Z,1.30
2022-09-03T05:05:55.952Z,1.20
2022-09-03T05:08:29.984Z,1.88
2022-09-03T05:11:02.732Z,1.67
2022-09-03T05:13:36.971Z,1.30
2022-09-03T05:16:11.634Z,0.93
2022-09-03T05:18:45.120Z,1.30
2022-09-03T05:21:19.525Z,1.10
2022-09-03T05:23:54.043Z,1.15
2022-09-03T05:26:28.532Z,1.45
2022-09-03T05:29:04.260Z,1.45
2022-09-03T05:31:39.185Z,1.30
2022-09-03T05:34:16.380Z,1.23
2022-09-03T05:36:50.822Z,1.23
2022-09-03T05:39:24.931Z,1.40
2022-09-03T05:41:57.767Z,1.40
2022-09-03T05:44:31.583Z,1.48
2022-09-03T05:47:04.303Z,1.77
2022-09-03T05:49:37.025Z,1.67
2022-09-03T05:52:10.076Z,1.30
2022-09-03T05:57:16.555Z,2.03
2022-09-03T05:59:49.220Z,2.72
2022-09-03T06:02:22.090Z,2.15
2022-09-03T06:07:29.291Z,2.25
2022-09-03T06:10:03.916Z,2.10
2022-09-03T06:12:37.141Z,2.88
2022-09-03T06:15:10.685Z,2.20
2022-09-03T06:17:43.606Z,2.47
2022-09-03T06:20:16.293Z,3.13
2022-09-03T06:22:52.666Z,2.85
2022-09-03T06:25:27.668Z,2.63
2022-09-03T06:28:02.219Z,2.33
2022-09-03T06:30:36.223Z,2.53
2022-09-03T06:33:08.901Z,2.58
2022-09-03T06:35:43.063Z,2.53
2022-09-03T06:38:16.196Z,2.75
2022-09-03T06:40:54.832Z,2.90
2022-09-03T06:43:27.842Z,2.15
2022-09-03T06:51:09.268Z,2.10
2022-09-03T06:53:44.256Z,2.35
2022-09-03T06:56:20.805Z,2.40
2022-09-03T06:58:54.884Z,2.42
2022-09-03T07:01:31.610Z,1.88
2022-09-03T07:04:06.139Z,2.38
2022-09-03T07:06:42.281Z,2.63
2022-09-03T07:09:15.510Z,2.67
2022-09-03T07:11:49.804Z,2.22
2022-09-03T07:14:23.106Z,2.05
2022-09-03T07:16:55.954Z,2.30
2022-09-03T07:19:29.048Z,2.47
2022-09-03T07:24:34.424Z,2.50
2022-09-03T07:27:11.848Z,2.42
2022-09-03T07:29:48.161Z,2.65
2022-09-03T07:32:20.820Z,2.60
2022-09-03T07:34:53.536Z,2.35
2022-09-03T07:37:26.296Z,2.00
2022-09-03T07:39:59.254Z,2.85
2022-09-03T07:45:10.107Z,2.50
2022-09-03T07:47:49.484Z,2.28
2022-09-03T07:50:22.660Z,2.38
2022-09-03T07:52:57.562Z,2.28
2022-09-03T07:55:30.474Z,2.40
2022-09-03T07:58:04.544Z,2.45
2022-09-03T08:00:37.385Z,3.20
2022-09-03T08:03:11.068Z,2.53
2022-09-03T08:05:43.772Z,2.90
2022-09-03T08:08:17.828Z,2.70
2022-09-03T08:10:50.765Z,3.22
2022-09-03T08:16:01.398Z,2.38
2022-09-03T08:18:37.885Z,2.53
2022-09-03T08:21:14.866Z,2.40
2022-09-03T08:23:49.235Z,2.10
2022-09-03T08:26:23.773Z,2.40
2022-09-03T08:28:57.925Z,1.90
2022-09-03T08:31:32.356Z,1.88
2022-09-03T08:34:07.796Z,2.35
2022-09-03T08:36:42.203Z,2.25
2022-09-03T08:39:14.986Z,2.40
2022-09-03T08:42:03.562Z,2.30
2022-09-03T08:44:47.039Z,2.33
2022-09-03T08:49:59.216Z,2.30
2022-09-03T08:52:35.399Z,2.03
2022-09-03T08:55:19.228Z,2.60
2022-09-03T08:57:56.258Z,2.03
2022-09-03T09:00:42.015Z,2.60
2022-09-03T09:03:32.992Z,1.83
2022-09-03T09:06:15.404Z,2.03
2022-09-03T09:09:00.316Z,1.52
2022-09-03T09:11:47.154Z,1.42
2022-09-03T09:14:24.340Z,2.10
2022-09-03T09:17:09.365Z,1.60
2022-09-03T09:19:56.006Z,2.22
2022-09-03T09:22:33.990Z,2.35
2022-09-03T09:25:14.375Z,2.85
2022-09-03T09:27:52.070Z,1.98
2022-09-03T09:30:24.862Z,1.23
2022-09-03T09:33:00.623Z,1.70
2022-09-03T09:35:33.378Z,1.83
2022-09-03T09:38:06.038Z,2.17
2022-09-03T09:40:45.034Z,2.20
2022-09-03T09:43:21.519Z,2.05
2022-09-03T09:45:55.610Z,2.10
2022-09-03T09:48:34.015Z,1.63
2022-09-03T09:51:09.939Z,1.48
2022-09-03T09:53:44.996Z,2.20
2022-09-03T09:56:25.526Z,2.05
2022-09-03T09:59:08.841Z,1.88
2022-09-03T10:01:44.099Z,1.30
2022-09-03T10:04:32.871Z,1.40
2022-09-03T10:07:22.923Z,2.00
2022-09-03T10:10:07.791Z,2.10
2022-09-03T10:12:43.406Z,2.10
2022-09-03T10:15:24.958Z,1.88
2022-09-03T10:18:03.188Z,1.70
2022-09-03T10:20:47.240Z,2.20
2022-09-03T10:23:24.904Z,2.30
2022-09-03T10:26:07.345Z,2.25
2022-09-03T10:28:41.770Z,1.70
2022-09-03T10:31:31.877Z,3.33
2022-09-03T10:34:13.888Z,2.25
2022-09-03T10:36:56.534Z,2.38
2022-09-03T10:39:43.250Z,2.45
2022-09-03T10:42:31.144Z,2.50
2022-09-03T10:45:14.771Z,2.78
2022-09-03T10:48:27.957Z,2.83
2022-09-03T10:51:07.685Z,2.53
2022-09-03T10:53:55.989Z,2.40
2022-09-03T10:56:34.869Z,2.42
2022-09-03T10:59:25.095Z,2.50
2022-09-03T11:02:19.576Z,2.45
2022-09-03T11:04:59.778Z,2.00
2022-09-03T11:07:40.189Z,2.72
2022-09-03T11:10:19.301Z,2.80
2022-09-03T11:13:02.426Z,3.08
2022-09-03T11:15:41.173Z,2.22
2022-09-03T11:18:22.852Z,2.35
2022-09-03T11:21:01.888Z,2.30
2022-09-03T11:23:40.626Z,2.30
2022-09-03T11:26:19.343Z,2.25
2022-09-03T11:29:00.018Z,2.28
2022-09-03T11:31:47.705Z,2.72
2022-09-03T11:34:32.638Z,2.65
2022-09-03T11:37:18.631Z,2.22
2022-09-03T11:40:04.706Z,2.83
2022-09-03T11:42:41.984Z,2.80
2022-09-03T11:45:22.843Z,2.35
2022-09-03T11:47:56.285Z,1.95
2022-09-03T11:50:31.643Z,2.20
2022-09-03T11:53:23.110Z,2.35
2022-09-03T11:55:58.539Z,1.77
2022-09-03T11:58:34.748Z,2.50
2022-09-03T12:01:14.996Z,1.60
2022-09-03T12:03:54.338Z,1.95
2022-09-03T12:06:43.757Z,1.60
2022-09-03T12:09:35.131Z,1.83
2022-09-03T12:12:23.966Z,2.10
2022-09-03T12:15:07.326Z,2.03
2022-09-03T12:18:10.785Z,1.80
2022-09-03T12:20:43.959Z,2.58
2022-09-03T12:23:29.238Z,2.53
2022-09-03T12:26:05.737Z,2.20
2022-09-03T12:28:44.801Z,1.88
2022-09-03T12:31:22.902Z,1.77
2022-09-03T12:33:59.173Z,1.73
2022-09-03T12:36:38.969Z,2.10
2022-09-03T12:39:13.110Z,1.70
2022-09-03T12:42:01.271Z,2.05
2022-09-03T12:44:41.421Z,1.88
2022-09-03T12:47:36.539Z,1.60
2022-09-03T12:50:12.421Z,1.80
2022-09-03T12:52:48.788Z,1.70
2022-09-03T12:55:34.679Z,1.40
2022-09-03T12:58:14.060Z,1.67
2022-09-03T13:00:51.064Z,1.60
2022-09-03T13:03:33.909Z,1.77
2022-09-03T13:06:10.544Z,1.63
2022-09-03T13:08:50.336Z,1.70
2022-09-03T13:11:25.472Z,2.70
2022-09-03T13:14:05.370Z,2.10
2022-09-03T13:17:16.422Z,1.90
2022-09-03T13:20:08.875Z,1.70
2022-09-03T13:23:11.924Z,2.13
2022-09-03T13:28:40.102Z,1.60
2022-09-03T13:31:27.175Z,1.63
2022-09-03T13:34:04.463Z,1.63
2022-09-03T13:36:47.197Z,1.67
2022-09-03T13:39:27.627Z,1.27
2022-09-03T13:42:07.551Z,1.30
2022-09-03T13:44:46.211Z,1.42
2022-09-03T13:47:30.679Z,1.42
2022-09-03T13:50:24.188Z,1.58
2022-09-03T13:53:05.165Z,1.60
2022-09-03T13:55:45.084Z,1.70
2022-09-03T13:58:25.346Z,1.40
2022-09-03T14:01:13.410Z,1.77
2022-09-03T14:03:49.581Z,1.58
2022-09-03T14:06:37.014Z,1.60
2022-09-03T14:09:16.928Z,1.48
2022-09-03T14:11:56.054Z,1.60
2022-09-03T14:14:44.708Z,1.30
2022-09-03T14:17:38.438Z,1.50
2022-09-03T14:20:19.796Z,1.73
2022-09-03T14:22:58.205Z,1.55
2022-09-03T14:25:33.453Z,1.52
2022-09-03T14:28:20.432Z,1.30
2022-09-03T14:31:00.650Z,1.58
2022-09-03T14:33:41.005Z,2.10
2022-09-03T14:36:21.468Z,1.50
2022-09-03T14:39:10.609Z,1.42
2022-09-03T14:42:00.315Z,2.80
2022-09-03T14:45:08.621Z,2.13
2022-09-03T14:47:58.369Z,1.83
2022-09-03T14:50:55.157Z,1.77
2022-09-03T14:54:02.764Z,1.45
2022-09-03T14:56:48.835Z,1.50
2022-09-03T14:59:43.480Z,1.50
2022-09-03T15:02:45.508Z,1.42
2022-09-03T15:05:28.899Z,1.50
2022-09-03T15:08:10.331Z,1.75
2022-09-03T15:10:47.243Z,1.25
2022-09-03T15:13:22.914Z,1.60
2022-09-03T15:16:31.407Z,1.67
2022-09-03T15:19:14.430Z,1.30
2022-09-03T15:22:04.185Z,1.40
2022-09-03T15:24:51.686Z,1.38
2022-09-03T15:27:41.981Z,1.67
2022-09-03T15:30:19.347Z,1.58
2022-09-03T15:33:06.495Z,1.90
2022-09-03T15:36:18.118Z,1.55
2022-09-03T15:38:57.512Z,1.75
2022-09-03T15:41:41.284Z,1.83
2022-09-03T15:44:19.187Z,1.58
2022-09-03T15:46:58.755Z,1.40
2022-09-03T15:49:46.158Z,1.55
2022-09-03T15:52:31.412Z,1.40
2022-09-03T15:55:11.080Z,1.45
2022-09-03T15:57:54.741Z,1.30
2022-09-03T16:00:32.519Z,2.08
2022-09-03T16:03:10.882Z,1.60
2022-09-03T16:05:50.848Z,1.67
2022-09-03T16:08:31.315Z,1.30
2022-09-03T16:11:14.216Z,1.65
2022-09-03T16:13:58.366Z,1.52
2022-09-03T16:16:48.297Z,1.30
2022-09-03T16:19:29.404Z,1.75
2022-09-03T16:22:08.488Z,1.40
2022-09-03T16:24:46.145Z,1.50
2022-09-03T16:27:23.751Z,1.70
2022-09-03T16:30:03.691Z,1.73
2022-09-03T16:33:01.184Z,1.60
2022-09-03T16:35:46.580Z,1.30
2022-09-03T16:38:32.274Z,1.60
2022-09-03T16:41:16.738Z,1.48
2022-09-03T16:44:06.030Z,1.70
2022-09-03T16:46:46.576Z,1.52
2022-09-03T16:49:38.011Z,1.63
2022-09-03T16:52:33.531Z,1.90
2022-09-03T16:55:21.426Z,2.47
2022-09-03T16:58:12.593Z,2.45
2022-09-03T17:01:00.943Z,2.20
2022-09-03T17:04:11.684Z,2.30
2022-09-03T17:06:57.366Z,2.58
2022-09-03T17:09:52.958Z,2.53
2022-09-03T17:12:36.607Z,2.35
2022-09-03T17:15:31.496Z,2.38
2022-09-03T17:18:27.677Z,1.92
2022-09-03T17:21:13.044Z,2.33
2022-09-03T17:24:33.700Z,2.35
2022-09-03T17:27:21.226Z,2.03
2022-09-03T17:30:05.192Z,2.30
2022-09-03T17:32:57.344Z,1.83
2022-09-03T17:35:39.514Z,1.55
2022-09-03T17:38:28.849Z,1.83
2022-09-03T17:41:16.047Z,2.25
2022-09-03T17:44:00.594Z,1.75
2022-09-03T17:46:45.494Z,1.70
2022-09-03T17:49:24.968Z,1.95
2022-09-03T17:52:04.659Z,2.60
2022-09-03T17:54:44.177Z,2.58
2022-09-03T17:57:24.661Z,1.92
2022-09-03T18:00:02.597Z,2.35
2022-09-03T18:02:46.984Z,2.22
2022-09-03T18:05:23.609Z,2.17
2022-09-03T18:08:04.896Z,3.17
2022-09-03T18:10:48.442Z,2.75
2022-09-03T18:13:32.553Z,2.90
2022-09-03T18:16:10.709Z,2.95
2022-09-03T18:18:48.799Z,2.33
2022-09-03T18:21:41.184Z,2.58
2022-09-03T18:24:46.649Z,1.90
2022-09-03T18:27:51.504Z,2.33
2022-09-03T18:30:46.698Z,2.22
2022-09-03T18:33:42.023Z,2.17
2022-09-03T18:36:34.301Z,2.63
2022-09-03T18:39:33.452Z,2.30
2022-09-03T18:42:31.491Z,2.35
2022-09-03T18:45:48.816Z,2.50
2022-09-03T18:48:51.884Z,2.47
2022-09-03T18:51:53.664Z,2.13
2022-09-03T18:55:07.384Z,1.90
2022-09-03T18:58:13.471Z,2.03
2022-09-03T19:01:11.673Z,3.13
2022-09-03T19:04:11.080Z,2.92
2022-09-03T19:07:09.872Z,3.00
2022-09-03T19:10:10.127Z,3.10
2022-09-03T19:13:13.723Z,3.08
2022-09-03T19:19:19.782Z,2.25
2022-09-03T19:22:18.100Z,2.78
2022-09-03T19:25:12.035Z,2.50
2022-09-03T19:28:14.045Z,3.03
2022-09-03T19:31:24.374Z,2.67
2022-09-03T19:34:24.927Z,3.10
2022-09-03T19:37:22.914Z,2.72
2022-09-03T19:40:30.393Z,2.80
2022-09-03T19:43:30.815Z,3.58
2022-09-03T19:46:37.235Z,3.60
2022-09-03T19:49:37.311Z,3.80
2022-09-03T19:52:36.196Z,3.50
2022-09-03T19:55:31.469Z,3.03
2022-09-03T19:58:42.041Z,3.05
2022-09-03T20:01:32.979Z,3.30
2022-09-03T20:04:31.122Z,3.15
2022-09-03T20:07:25.701Z,3.17
2022-09-03T20:10:22.500Z,3.25
2022-09-03T20:13:04.340Z,3.47
2022-09-03T20:15:48.186Z,3.10
2022-09-03T20:18:35.931Z,3.75
2022-09-03T20:21:17.376Z,3.13
2022-09-03T20:23:58.392Z,3.45
2022-09-03T20:26:47.373Z,3.13
2022-09-03T20:29:49.408Z,3.00
2022-09-03T20:32:44.052Z,3.08
2022-09-03T20:35:24.574Z,2.95
2022-09-03T20:38:08.453Z,2.58
2022-09-03T20:40:47.783Z,2.50
2022-09-03T20:43:35.152Z,2.50
2022-09-03T20:46:21.356Z,2.78
2022-09-03T20:49:08.448Z,2.58
2022-09-03T20:51:46.559Z,2.13
2022-09-03T20:54:22.883Z,2.75
2022-09-03T20:57:19.195Z,2.30
2022-09-03T21:00:06.603Z,3.00
2022-09-03T21:03:05.985Z,3.00
2022-09-03T21:05:44.398Z,3.10
2022-09-03T21:08:30.845Z,2.30
2022-09-03T21:11:08.901Z,3.05
2022-09-03T21:13:51.563Z,2.47
2022-09-03T21:16:34.463Z,2.55
2022-09-03T21:19:12.498Z,2.38
2022-09-03T21:21:54.381Z,1.90
2022-09-03T21:24:32.056Z,2.10
2022-09-03T21:27:10.904Z,2.55
2022-09-03T21:29:48.025Z,2.22
2022-09-03T21:32:26.300Z,2.70
2022-09-03T21:35:06.154Z,2.55
2022-09-03T21:37:42.907Z,2.50
2022-09-03T21:40:24.176Z,2.17
2022-09-03T21:43:02.736Z,2.20
2022-09-03T21:45:40.196Z,2.05
2022-09-03T21:48:19.973Z,2.58
2022-09-03T21:50:57.323Z,2.47
2022-09-03T21:53:33.683Z,2.38
2022-09-03T21:56:36.237Z,2.33
2022-09-03T21:59:19.682Z,2.60
2022-09-03T22:02:03.993Z,2.17
2022-09-03T22:04:38.351Z,3.15
2022-09-03T22:07:18.053Z,2.67
2022-09-03T22:09:55.784Z,2.90
2022-09-03T22:12:36.839Z,2.67
2022-09-03T22:15:13.227Z,3.28
2022-09-03T22:17:56.856Z,2.75
2022-09-03T22:20:31.025Z,2.95
2022-09-03T22:23:13.925Z,3.35
2022-09-03T22:25:58.980Z,3.97
2022-09-03T22:28:42.823Z,3.30
2022-09-03T22:31:22.001Z,2.65
2022-09-03T22:34:03.543Z,2.97
2022-09-03T22:36:41.699Z,3.50
2022-09-03T22:39:26.796Z,2.50
2022-09-03T22:42:15.760Z,2.83
2022-09-03T22:45:10.911Z,3.33
2022-09-03T22:47:51.935Z,3.40
2022-09-03T22:50:32.139Z,3.15
2022-09-03T22:53:18.955Z,2.63
2022-09-03T22:55:59.717Z,3.38
2022-09-03T22:58:36.429Z,3.17
2022-09-03T23:01:14.520Z,3.28
2022-09-03T23:03:55.009Z,2.88
2022-09-03T23:06:32.844Z,2.85
2022-09-03T23:09:10.017Z,3.15
2022-09-03T23:11:47.238Z,2.55
2022-09-03T23:14:25.117Z,3.35
2022-09-03T23:17:04.375Z,3.80
2022-09-03T23:19:42.181Z,4.10
2022-09-03T23:22:22.982Z,4.43
2022-09-03T23:25:03.756Z,4.10
2022-09-03T23:27:40.566Z,4.25
2022-09-03T23:30:13.794Z,3.75
2022-09-03T23:32:46.847Z,4.32
2022-09-03T23:35:21.404Z,3.65
2022-09-03T23:38:15.190Z,4.00
2022-09-03T23:40:50.823Z,3.50
2022-09-03T23:44:01.776Z,2.97
2022-09-03T23:46:39.475Z,2.75
2022-09-03T23:49:32.333Z,2.42
2022-09-03T23:52:23.171Z,2.63
2022-09-03T23:55:04.348Z,3.03
2022-09-03T23:57:41.426Z,2.88
